SBOSBO NWI / EGSH
Speedbird OnlineSpeedbird Online NWI / EGSH

Norwich International Airport
20:01 -1.5°C

Location Norwich, United Kingdom
Latitude: 52.6758003235
Longitude: 1.28278005123
Web Airport Website | Wikipedia
Altitude 36 Meter / 117 Feet
Distance 151 KM / 94 Miles
from London.
Time Zone UTC 0 hours (Europe/London)
Codes IATA: NWI
ICAO: EGSH
Runways
RunwayLength (m)Surface
041266Asphalt
091841Asphalt
221266Asphalt
271841Asphalt
Radio
TypeDescriptionFrequency
APPAPP119.35
ATISATIS128.625
RDRDirector128.325
TWRTWR124.25
Live ATC
METAR EGSH 091920Z 23004KT CAVOK M02/M03 Q1007 NOSIG
TAF TAF AMD EGSH 091830Z 0918/1003 25005KT 9999 FEW040 PROB30 TEMPO 0918/0921 8000 TEMPO 0921/1003 6000 PROB40 TEMPO 0921/0924 4000 BR PROB30 TEMPO 1000/1003 0300 FZFG VV///
Weather As Of 09 Dec 2022 20:01
Description Clear sky
Wind 7 km/h from South-West (230°)
Cloud Cover 0%
Precipitation Rain: none, Snow: none
Sunrise 07:54
Sunset 15:40
Rotations During the last 90 days there were
10 flights from LCY
3 flights from NWI
2 flights from EDI
12 flights to LCY
3 flights to NWI
2 flights to EDI


© 2017-2022 Speedbird Online